Time;durP1;ratioP1;P1;durP2;ratioP2;P2;SDS_P1;SDS_P2;PMS_P1;PMS_P2;Temp;Humidity;BMP_temperature;BMP_pressure;BME280_temperature;BME280_humidity;BME280_pressure;Samples;Min_cycle;Max_cycle;Signal;HPM_P1;HPM_P2
2023/10/22 00:00:24;;;;;;;0.20;0.20;;;12.50;99.90;;;;;;5030380;28;20136;-77
2023/10/22 00:02:50;;;;;;;0.20;0.20;;;12.50;99.90;;;;;;5028341;28;20119;-75
2023/10/22 00:05:15;;;;;;;0.20;0.20;;;12.50;99.90;;;;;;5024260;28;20073;-75
2023/10/22 00:07:41;;;;;;;0.10;0.10;;;12.50;99.90;;;;;;5007657;28;20046;-74
2023/10/22 00:10:07;;;;;;;0.10;0.10;;;12.50;99.90;;;;;;5027901;28;20485;-75
2023/10/22 00:12:32;;;;;;;0.20;0.20;;;12.50;99.90;;;;;;5027687;28;20053;-75
2023/10/22 00:14:58;;;;;;;0.10;0.10;;;12.50;99.90;;;;;;5029441;28;20041;-75
2023/10/22 00:17:23;;;;;;;0.10;0.10;;;12.50;99.90;;;;;;5005501;28;20052;-75
2023/10/22 00:19:49;;;;;;;0.10;0.10;;;12.50;99.90;;;;;;5009647;28;20530;-75
2023/10/22 00:22:16;;;;;;;0.10;0.10;;;12.40;99.90;;;;;;5008569;28;20046;-75
2023/10/22 00:24:43;;;;;;;0.10;0.10;;;12.50;99.90;;;;;;5001601;28;20499;-75
2023/10/22 00:27:08;;;;;;;0.20;0.20;;;12.50;99.90;;;;;;5014122;28;20092;-76
2023/10/22 00:29:34;;;;;;;0.10;0.10;;;12.50;99.90;;;;;;5013756;28;20069;-75
2023/10/22 00:32:00;;;;;;;0.10;0.10;;;12.50;99.90;;;;;;5032585;28;20111;-74
2023/10/22 00:34:25;;;;;;;0.10;0.10;;;12.50;99.90;;;;;;5005815;28;20050;-75
2023/10/22 00:36:52;;;;;;;0.10;0.10;;;12.50;99.90;;;;;;4996214;28;20497;-75
2023/10/22 00:39:18;;;;;;;0.10;0.10;;;12.50;99.90;;;;;;5003500;28;20095;-74
2023/10/22 00:41:43;;;;;;;0.20;0.20;;;12.50;99.90;;;;;;5030056;28;20044;-74
2023/10/22 00:44:09;;;;;;;0.10;0.10;;;12.50;99.90;;;;;;5011697;28;20041;-75
2023/10/22 00:46:36;;;;;;;0.10;0.10;;;12.50;99.90;;;;;;5011125;28;20061;-74
2023/10/22 00:49:02;;;;;;;0.10;0.10;;;12.50;99.90;;;;;;5032379;28;20051;-76
2023/10/22 00:51:28;;;;;;;0.20;0.20;;;12.50;99.90;;;;;;5006937;28;20583;-75
2023/10/22 00:53:54;;;;;;;0.10;0.10;;;12.40;99.90;;;;;;5032389;28;20047;-74
2023/10/22 00:56:22;;;;;;;0.20;0.20;;;12.50;99.90;;;;;;5032322;28;20048;-75
2023/10/22 00:58:48;;;;;;;0.20;0.20;;;12.50;99.90;;;;;;5012460;28;20038;-74
2023/10/22 01:01:15;;;;;;;0.10;0.10;;;12.50;99.90;;;;;;5014965;28;20050;-74
2023/10/22 01:03:40;;;;;;;0.20;0.20;;;12.50;99.90;;;;;;5011812;28;20136;-75
2023/10/22 01:06:06;;;;;;;0.10;0.10;;;12.50;99.90;;;;;;4995253;28;20129;-75
2023/10/22 01:08:33;;;;;;;0.10;0.10;;;12.50;99.90;;;;;;4995826;28;20093;-75
2023/10/22 01:11:06;;;;;;;0.10;0.10;;;12.50;99.90;;;;;;5004462;28;20045;-75
2023/10/22 01:13:32;;;;;;;0.10;0.10;;;12.50;99.90;;;;;;5011282;28;20057;-74
2023/10/22 01:15:58;;;;;;;0.20;0.20;;;12.40;99.90;;;;;;5018333;28;20041;-75
2023/10/22 01:18:24;;;;;;;0.10;0.10;;;12.50;99.90;;;;;;5013613;28;20132;-75
2023/10/22 01:20:50;;;;;;;0.10;0.10;;;12.50;99.90;;;;;;5011100;28;20049;-75
2023/10/22 01:23:16;;;;;;;0.10;0.10;;;12.60;99.90;;;;;;5015084;28;20038;-74
2023/10/22 01:25:41;;;;;;;0.20;0.20;;;12.60;99.90;;;;;;5031720;28;20106;-76
2023/10/22 01:28:07;;;;;;;0.10;0.10;;;12.60;99.90;;;;;;5030124;28;20396;-75
2023/10/22 01:30:33;;;;;;;0.10;0.10;;;12.60;99.90;;;;;;5009926;28;20046;-75
2023/10/22 01:32:58;;;;;;;0.20;0.20;;;12.70;99.90;;;;;;5016705;28;20044;-73
2023/10/22 01:35:24;;;;;;;0.10;0.10;;;12.60;99.90;;;;;;4996698;28;20451;-74
2023/10/22 01:37:49;;;;;;;0.10;0.10;;;12.70;99.90;;;;;;5012994;28;20404;-74
2023/10/22 01:40:15;;;;;;;0.10;0.10;;;12.70;99.90;;;;;;5030715;28;20519;-75
2023/10/22 01:42:41;;;;;;;0.15;0.15;;;12.70;99.90;;;;;;5012807;28;20390;-74
2023/10/22 01:45:07;;;;;;;0.10;0.10;;;12.70;99.90;;;;;;5013970;28;20056;-74
2023/10/22 01:47:33;;;;;;;0.10;0.10;;;12.70;99.90;;;;;;5014714;28;20059;-74
2023/10/22 01:49:58;;;;;;;0.10;0.10;;;12.70;99.90;;;;;;5011933;28;20041;-74
2023/10/22 01:52:24;;;;;;;0.10;0.10;;;12.70;99.90;;;;;;5029966;28;20042;-74
2023/10/22 01:54:50;;;;;;;0.10;0.10;;;12.70;99.90;;;;;;5030418;28;20043;-74
2023/10/22 01:57:16;;;;;;;0.20;0.20;;;12.60;99.90;;;;;;5027598;28;20053;-75
2023/10/22 01:59:42;;;;;;;0.15;0.15;;;12.70;99.90;;;;;;5025780;28;20377;-75
2023/10/22 02:02:08;;;;;;;0.10;0.10;;;12.60;99.90;;;;;;5008721;28;20097;-74
2023/10/22 02:04:34;;;;;;;0.10;0.10;;;12.70;99.90;;;;;;5016743;28;20045;-74
2023/10/22 02:07:00;;;;;;;0.10;0.10;;;12.60;99.90;;;;;;4998754;28;20381;-74
2023/10/22 02:09:26;;;;;;;0.10;0.10;;;12.60;99.90;;;;;;5009201;28;20045;-74
2023/10/22 02:11:53;;;;;;;0.20;0.20;;;12.50;99.90;;;;;;5005975;28;20042;-75
2023/10/22 02:14:19;;;;;;;0.10;0.10;;;12.50;99.90;;;;;;5027567;28;20133;-75
2023/10/22 02:16:45;;;;;;;0.10;0.10;;;12.50;99.90;;;;;;5011833;28;20472;-75
2023/10/22 02:19:11;;;;;;;0.20;0.20;;;12.50;99.90;;;;;;5011795;28;20071;-74
2023/10/22 02:21:36;;;;;;;0.10;0.10;;;12.40;99.90;;;;;;5013421;28;20048;-76
2023/10/22 02:24:02;;;;;;;0.10;0.10;;;12.40;99.90;;;;;;5012636;28;20054;-75
2023/10/22 02:26:28;;;;;;;0.10;0.10;;;12.40;99.90;;;;;;5029354;28;20441;-75
2023/10/22 02:28:54;;;;;;;0.10;0.10;;;12.40;99.90;;;;;;5014255;28;20046;-75
2023/10/22 02:31:19;;;;;;;0.10;0.10;;;12.40;99.90;;;;;;5013099;28;20042;-75
2023/10/22 02:33:45;;;;;;;0.20;0.20;;;12.30;99.90;;;;;;5026676;28;20409;-76
2023/10/22 02:36:11;;;;;;;0.10;0.10;;;12.30;99.90;;;;;;5026278;28;20052;-75
2023/10/22 02:38:38;;;;;;;0.10;0.10;;;12.30;99.90;;;;;;5028987;28;20049;-75
2023/10/22 02:41:04;;;;;;;0.10;0.10;;;12.30;99.90;;;;;;5029176;28;20696;-76
2023/10/22 02:43:30;;;;;;;0.10;0.10;;;12.30;99.90;;;;;;5026790;28;20033;-76
2023/10/22 02:45:56;;;;;;;0.10;0.10;;;12.20;99.90;;;;;;5007661;28;20054;-76
2023/10/22 02:48:23;;;;;;;0.10;0.10;;;12.20;99.90;;;;;;5023999;28;20068;-76
2023/10/22 02:50:49;;;;;;;0.10;0.10;;;12.20;99.90;;;;;;5029753;28;20053;-75
2023/10/22 02:53:15;;;;;;;0.10;0.10;;;12.20;99.90;;;;;;5011386;28;20046;-76
2023/10/22 02:55:40;;;;;;;0.20;0.20;;;12.20;99.90;;;;;;5008494;28;20416;-76
2023/10/22 02:58:06;;;;;;;0.10;0.10;;;12.10;99.90;;;;;;4997349;28;20045;-76
2023/10/22 03:00:36;;;;;;;0.10;0.10;;;12.10;99.90;;;;;;5005141;28;20046;-76
2023/10/22 03:03:03;;;;;;;0.10;0.10;;;12.10;99.90;;;;;;5009581;28;20072;-76
2023/10/22 03:05:36;;;;;;;0.17;0.17;;;12.10;99.90;;;;;;4993794;28;20614;-76
2023/10/22 03:08:03;;;;;;;0.15;0.15;;;12.10;99.90;;;;;;4994163;28;20069;-76
2023/10/22 03:10:29;;;;;;;0.10;0.10;;;12.10;99.90;;;;;;4992218;28;20058;-76
2023/10/22 03:12:55;;;;;;;0.13;0.13;;;12.10;99.90;;;;;;5011453;28;20036;-77
2023/10/22 03:15:20;;;;;;;0.10;0.10;;;12.10;99.90;;;;;;5011564;28;20049;-77
2023/10/22 03:17:46;;;;;;;0.10;0.10;;;12.10;99.90;;;;;;5009635;28;20049;-77
2023/10/22 03:20:12;;;;;;;0.13;0.13;;;12.00;99.90;;;;;;5009969;28;20492;-76
2023/10/22 03:22:37;;;;;;;0.10;0.10;;;12.00;99.90;;;;;;5007102;28;20099;-77
2023/10/22 03:25:07;;;;;;;0.10;0.10;;;12.00;99.90;;;;;;5025673;28;20053;-77
2023/10/22 03:27:34;;;;;;;0.10;0.10;;;12.00;99.90;;;;;;5003002;28;20050;-76
2023/10/22 03:29:59;;;;;;;0.10;0.10;;;12.00;99.90;;;;;;5010188;28;20088;-76
2023/10/22 03:32:25;;;;;;;0.15;0.15;;;12.00;99.90;;;;;;5012275;28;20163;-76
2023/10/22 03:34:50;;;;;;;0.20;0.20;;;12.00;99.90;;;;;;5004132;28;20207;-75
2023/10/22 03:37:17;;;;;;;0.10;0.10;;;12.00;99.90;;;;;;5012462;28;20049;-79
2023/10/22 03:39:42;;;;;;;0.10;0.10;;;12.00;99.90;;;;;;5016371;28;20073;-76
2023/10/22 03:42:08;;;;;;;0.10;0.10;;;12.00;99.90;;;;;;4991660;28;20143;-76
2023/10/22 03:44:34;;;;;;;0.20;0.20;;;12.00;99.90;;;;;;4992792;28;20176;-76
2023/10/22 03:46:59;;;;;;;0.10;0.10;;;12.00;99.90;;;;;;5026426;28;20048;-76
2023/10/22 03:49:25;;;;;;;0.10;0.10;;;12.00;99.90;;;;;;5010663;28;20069;-75
2023/10/22 03:51:51;;;;;;;0.10;0.10;;;12.00;99.90;;;;;;5029739;28;20076;-77
2023/10/22 03:54:16;;;;;;;0.10;0.10;;;12.00;99.90;;;;;;5028768;28;20045;-75
2023/10/22 03:56:42;;;;;;;0.10;0.10;;;12.00;99.90;;;;;;5011946;28;20601;-75
2023/10/22 03:59:07;;;;;;;0.20;0.20;;;12.00;99.90;;;;;;5014105;28;20056;-76
2023/10/22 04:01:33;;;;;;;0.20;0.20;;;12.00;99.90;;;;;;5010727;28;20052;-76
2023/10/22 04:03:59;;;;;;;0.10;0.10;;;12.00;99.90;;;;;;5021835;28;20069;-75
2023/10/22 04:06:24;;;;;;;0.20;0.20;;;12.10;99.90;;;;;;5000166;28;20096;-76
2023/10/22 04:08:50;;;;;;;0.10;0.10;;;12.00;99.90;;;;;;5032460;28;20049;-75
2023/10/22 04:11:20;;;;;;;0.10;0.10;;;12.00;99.90;;;;;;5031204;28;20140;-75
2023/10/22 04:13:46;;;;;;;0.20;0.20;;;12.00;99.90;;;;;;5013138;28;20063;-75
2023/10/22 04:16:16;;;;;;;0.20;0.20;;;12.00;99.90;;;;;;5011611;28;20053;-75
2023/10/22 04:18:42;;;;;;;0.10;0.10;;;12.00;99.90;;;;;;5032526;28;20049;-78
2023/10/22 04:21:15;;;;;;;0.10;0.10;;;12.10;99.90;;;;;;5016106;28;20049;-76
2023/10/22 04:23:41;;;;;;;0.10;0.10;;;12.10;99.90;;;;;;5014226;28;20050;-76
2023/10/22 04:26:16;;;;;;;0.10;0.10;;;12.00;99.90;;;;;;5015320;28;20053;-76
2023/10/22 04:28:46;;;;;;;0.10;0.10;;;12.10;99.90;;;;;;5013886;28;20045;-75
2023/10/22 04:31:12;;;;;;;0.10;0.10;;;12.00;99.90;;;;;;5028206;28;20088;-76
2023/10/22 04:33:37;;;;;;;0.10;0.10;;;12.00;99.90;;;;;;5029073;28;20128;-76
2023/10/22 04:36:03;;;;;;;0.17;0.17;;;12.00;99.90;;;;;;5027438;28;20115;-75
2023/10/22 04:38:30;;;;;;;0.10;0.10;;;12.10;99.90;;;;;;5030779;28;20531;-76
2023/10/22 04:40:56;;;;;;;0.10;0.10;;;12.10;99.90;;;;;;5032440;28;20054;-76
2023/10/22 04:43:22;;;;;;;0.10;0.10;;;12.00;99.90;;;;;;5015346;28;20433;-76
2023/10/22 04:45:49;;;;;;;0.10;0.10;;;12.00;99.90;;;;;;5014600;28;20076;-75
2023/10/22 04:48:15;;;;;;;0.10;0.10;;;12.10;99.90;;;;;;5015271;28;20092;-77
2023/10/22 04:50:41;;;;;;;0.17;0.17;;;12.00;99.90;;;;;;5031149;28;20577;-76
2023/10/22 04:53:07;;;;;;;0.20;0.20;;;12.00;99.90;;;;;;5030278;28;20045;-76
2023/10/22 04:55:33;;;;;;;0.20;0.20;;;12.00;99.90;;;;;;5032284;28;20408;-76
2023/10/22 04:58:00;;;;;;;0.15;0.15;;;12.00;99.90;;;;;;5010759;28;20057;-76
2023/10/22 05:00:26;;;;;;;0.20;0.20;;;12.00;99.90;;;;;;5013102;28;20120;-76
2023/10/22 05:02:52;;;;;;;0.10;0.10;;;12.10;99.90;;;;;;5033003;28;20140;-76
2023/10/22 05:05:19;;;;;;;0.10;0.10;;;12.10;99.90;;;;;;5032052;28;20045;-76
2023/10/22 05:07:45;;;;;;;0.10;0.10;;;12.10;99.90;;;;;;5015304;28;20115;-76
2023/10/22 05:10:11;;;;;;;0.10;0.10;;;12.10;99.90;;;;;;5014763;28;20053;-76
2023/10/22 05:12:38;;;;;;;0.10;0.10;;;12.10;99.90;;;;;;5013454;28;20046;-77
2023/10/22 05:15:04;;;;;;;0.20;0.20;;;12.10;99.90;;;;;;5013828;28;20087;-77
2023/10/22 05:17:29;;;;;;;0.20;0.20;;;12.10;99.90;;;;;;5013743;28;20460;-77
2023/10/22 05:19:55;;;;;;;0.10;0.10;;;12.10;99.90;;;;;;5030346;28;20042;-76
2023/10/22 05:22:21;;;;;;;0.20;0.20;;;12.10;99.90;;;;;;5031398;28;20038;-76
2023/10/22 05:24:48;;;;;;;0.20;0.20;;;12.10;99.90;;;;;;5029425;28;20107;-76
2023/10/22 05:27:14;;;;;;;0.10;0.10;;;12.00;99.90;;;;;;5008571;28;20058;-77
2023/10/22 05:29:39;;;;;;;0.10;0.10;;;12.10;99.90;;;;;;5010381;28;20042;-76
2023/10/22 05:32:05;;;;;;;0.20;0.20;;;12.10;99.90;;;;;;5008567;28;20037;-76
2023/10/22 05:34:32;;;;;;;0.10;0.10;;;12.10;99.90;;;;;;5003902;28;20062;-76
2023/10/22 05:36:57;;;;;;;0.10;0.10;;;12.10;99.90;;;;;;5029785;28;20053;-77
2023/10/22 05:39:23;;;;;;;0.20;0.20;;;12.00;99.90;;;;;;5008508;28;20053;-76
2023/10/22 05:41:49;;;;;;;0.20;0.20;;;12.10;99.90;;;;;;5006995;28;20084;-76
2023/10/22 05:44:14;;;;;;;0.10;0.10;;;12.20;99.90;;;;;;5028064;28;20033;-78
2023/10/22 05:46:41;;;;;;;0.10;0.10;;;12.20;99.90;;;;;;5013811;28;20049;-77
2023/10/22 05:49:09;;;;;;;0.20;0.20;;;12.20;99.90;;;;;;5010547;28;20905;-76
2023/10/22 05:51:35;;;;;;;0.20;0.20;;;12.20;99.90;;;;;;5014087;28;20041;-76
2023/10/22 05:54:03;;;;;;;0.10;0.10;;;12.20;99.90;;;;;;5013755;28;20401;-76
2023/10/22 05:56:29;;;;;;;0.10;0.10;;;12.20;99.90;;;;;;5013359;28;20057;-76
2023/10/22 05:58:55;;;;;;;0.10;0.10;;;12.30;99.90;;;;;;5013383;28;20052;-77
2023/10/22 06:01:21;;;;;;;0.20;0.20;;;12.30;99.90;;;;;;5013041;28;20536;-76
2023/10/22 06:03:47;;;;;;;0.10;0.10;;;12.30;99.90;;;;;;5010613;28;20077;-76
2023/10/22 06:06:19;;;;;;;0.10;0.10;;;12.30;99.90;;;;;;5013928;28;20076;-77
2023/10/22 06:08:46;;;;;;;0.10;0.10;;;12.30;99.90;;;;;;5013104;28;20049;-76
2023/10/22 06:11:12;;;;;;;0.10;0.10;;;12.30;99.90;;;;;;5012352;28;20195;-77
2023/10/22 06:13:38;;;;;;;0.10;0.10;;;12.40;99.90;;;;;;5009603;28;20048;-77
2023/10/22 06:16:04;;;;;;;0.10;0.10;;;12.40;99.90;;;;;;5005790;28;20049;-76
2023/10/22 06:18:30;;;;;;;0.20;0.20;;;12.40;99.90;;;;;;5013408;28;20037;-77
2023/10/22 06:20:55;;;;;;;0.10;0.10;;;12.40;99.90;;;;;;5014388;28;20124;-77
2023/10/22 06:23:21;;;;;;;0.20;0.20;;;12.50;99.90;;;;;;5009254;28;20045;-78
2023/10/22 06:25:48;;;;;;;0.20;0.20;;;12.40;99.90;;;;;;4993230;28;20050;-77
2023/10/22 06:28:13;;;;;;;0.20;0.20;;;12.40;99.90;;;;;;5028284;28;20481;-78
2023/10/22 06:30:40;;;;;;;0.10;0.10;;;12.40;99.90;;;;;;5013050;28;20052;-76
2023/10/22 06:33:06;;;;;;;0.10;0.10;;;12.40;99.90;;;;;;5013797;28;20049;-78
2023/10/22 06:35:32;;;;;;;0.10;0.10;;;12.30;99.90;;;;;;5030616;28;20149;-77
2023/10/22 06:37:58;;;;;;;0.20;0.20;;;12.30;99.90;;;;;;5011903;28;20049;-76
2023/10/22 06:40:24;;;;;;;0.17;0.17;;;12.30;99.90;;;;;;5011159;28;20060;-76
2023/10/22 06:42:50;;;;;;;0.10;0.10;;;12.30;99.90;;;;;;5029871;28;20120;-77
2023/10/22 06:45:17;;;;;;;0.10;0.10;;;12.20;99.90;;;;;;5025291;28;20050;-77
2023/10/22 06:47:43;;;;;;;0.10;0.10;;;12.20;99.90;;;;;;5008003;28;20045;-77
2023/10/22 06:50:13;;;;;;;0.20;0.20;;;12.20;99.90;;;;;;5025694;28;20041;-77
2023/10/22 06:52:42;;;;;;;0.10;0.10;;;12.20;99.90;;;;;;5026794;28;20065;-77
2023/10/22 06:55:09;;;;;;;0.10;0.10;;;12.10;99.90;;;;;;5010727;28;20045;-77
2023/10/22 06:57:34;;;;;;;0.10;0.10;;;12.10;99.90;;;;;;5010544;28;20033;-77
2023/10/22 07:00:00;;;;;;;0.10;0.10;;;12.10;99.90;;;;;;5013449;28;20480;-77
2023/10/22 07:02:26;;;;;;;0.10;0.10;;;12.10;99.90;;;;;;5030276;28;20072;-77
2023/10/22 07:04:53;;;;;;;0.10;0.10;;;12.10;99.90;;;;;;4999464;28;20083;-76
2023/10/22 07:07:19;;;;;;;0.10;0.10;;;12.10;99.90;;;;;;4993677;28;20057;-76
2023/10/22 07:09:45;;;;;;;0.20;0.20;;;12.10;99.90;;;;;;5010777;28;20465;-76
2023/10/22 07:12:10;;;;;;;0.10;0.10;;;12.10;99.90;;;;;;4991619;28;20129;-77
2023/10/22 07:14:36;;;;;;;0.10;0.10;;;12.10;99.90;;;;;;5027408;28;20124;-77
2023/10/22 07:17:02;;;;;;;0.20;0.20;;;12.00;99.90;;;;;;5030908;28;20057;-76
2023/10/22 07:19:28;;;;;;;0.20;0.20;;;12.00;99.90;;;;;;5012108;28;20045;-76
2023/10/22 07:21:54;;;;;;;0.10;0.10;;;12.00;99.90;;;;;;5031104;28;20399;-75
2023/10/22 07:24:20;;;;;;;0.10;0.10;;;12.00;99.90;;;;;;5012150;28;20759;-75
2023/10/22 07:26:46;;;;;;;0.13;0.13;;;12.10;99.90;;;;;;5012006;28;20050;-76
2023/10/22 07:29:12;;;;;;;0.20;0.20;;;12.10;99.90;;;;;;5008392;28;20042;-76
2023/10/22 07:31:38;;;;;;;0.15;0.15;;;12.00;99.90;;;;;;5027803;28;20045;-75
2023/10/22 07:34:04;;;;;;;0.10;0.10;;;12.00;99.90;;;;;;5032528;28;20042;-76
2023/10/22 07:36:30;;;;;;;0.10;0.10;;;12.10;99.90;;;;;;5013665;28;20052;-75
2023/10/22 07:38:56;;;;;;;0.13;0.13;;;12.00;99.90;;;;;;5010802;28;20050;-76
2023/10/22 07:41:22;;;;;;;0.10;0.10;;;12.10;99.90;;;;;;5015038;28;20045;-77
2023/10/22 07:43:48;;;;;;;0.20;0.20;;;12.10;99.90;;;;;;5011727;28;20054;-78
2023/10/22 07:46:15;;;;;;;0.17;0.17;;;12.10;99.90;;;;;;5030400;28;20041;-77
2023/10/22 07:48:45;;;;;;;0.10;0.10;;;12.10;99.90;;;;;;5033544;28;20084;-78
2023/10/22 07:51:19;;;;;;;0.17;0.17;;;12.10;99.90;;;;;;5010900;28;20054;-77
2023/10/22 07:53:46;;;;;;;0.20;0.20;;;12.10;99.90;;;;;;5005656;28;20495;-76
2023/10/22 07:56:15;;;;;;;0.10;0.10;;;12.10;99.90;;;;;;5013705;28;20480;-77
2023/10/22 07:58:41;;;;;;;0.10;0.10;;;12.10;99.90;;;;;;5009433;28;20042;-77
2023/10/22 08:01:07;;;;;;;0.10;0.10;;;12.00;99.90;;;;;;5011334;28;20049;-77
2023/10/22 08:03:33;;;;;;;0.10;0.10;;;12.00;99.90;;;;;;5009795;28;20100;-76
2023/10/22 08:06:00;;;;;;;0.17;0.17;;;12.00;99.90;;;;;;5031894;28;20060;-76
2023/10/22 08:08:26;;;;;;;0.20;0.20;;;12.00;99.90;;;;;;5012866;28;20525;-76
2023/10/22 08:10:56;;;;;;;0.10;0.10;;;12.00;99.90;;;;;;5015132;28;20045;-76
2023/10/22 08:13:21;;;;;;;0.10;0.10;;;11.90;99.90;;;;;;5033143;28;20081;-76
2023/10/22 08:15:47;;;;;;;0.10;0.10;;;12.00;99.90;;;;;;5032008;28;20132;-76
2023/10/22 08:18:13;;;;;;;0.20;0.20;;;12.00;99.90;;;;;;5030490;28;20049;-76
2023/10/22 08:20:38;;;;;;;0.13;0.13;;;12.00;99.90;;;;;;5011682;28;20374;-76
2023/10/22 08:23:04;;;;;;;0.10;0.10;;;12.00;99.90;;;;;;5011785;28;20528;-76
2023/10/22 08:25:30;;;;;;;0.10;0.10;;;12.00;99.90;;;;;;5022856;28;20493;-76
2023/10/22 08:27:56;;;;;;;0.10;0.10;;;12.00;99.90;;;;;;5011466;28;20390;-76
2023/10/22 08:30:22;;;;;;;0.20;0.20;;;12.00;99.90;;;;;;5013171;28;20125;-76
2023/10/22 08:32:48;;;;;;;0.10;0.10;;;12.10;99.90;;;;;;5013678;28;20485;-76
2023/10/22 08:35:14;;;;;;;0.10;0.10;;;12.10;99.90;;;;;;5029048;28;20144;-76
2023/10/22 08:37:41;;;;;;;0.20;0.20;;;12.10;99.90;;;;;;5031758;28;20381;-76
2023/10/22 08:40:08;;;;;;;0.17;0.17;;;12.10;99.90;;;;;;5017117;28;20457;-76
2023/10/22 08:42:35;;;;;;;0.10;0.10;;;12.20;99.90;;;;;;5014705;28;20069;-76
2023/10/22 08:45:03;;;;;;;0.10;0.10;;;12.20;99.90;;;;;;5014565;28;20045;-75
2023/10/22 08:47:33;;;;;;;0.10;0.10;;;12.20;99.90;;;;;;5014681;28;20400;-76
2023/10/22 08:50:01;;;;;;;0.10;0.10;;;12.30;99.90;;;;;;5014731;28;20057;-78
2023/10/22 08:52:27;;;;;;;0.10;0.10;;;12.30;99.90;;;;;;5013198;28;20037;-76
2023/10/22 08:54:53;;;;;;;0.10;0.10;;;12.30;99.90;;;;;;5015113;28;20103;-75
2023/10/22 08:57:24;;;;;;;0.20;0.20;;;12.30;99.90;;;;;;5031474;28;20471;-75
2023/10/22 08:59:50;;;;;;;0.13;0.13;;;12.40;99.90;;;;;;5033364;28;20563;-75
2023/10/22 09:02:18;;;;;;;0.10;0.10;;;12.40;99.90;;;;;;5015017;28;20048;-75
2023/10/22 09:04:44;;;;;;;0.10;0.10;;;12.40;99.90;;;;;;5000312;28;20437;-75
2023/10/22 09:07:10;;;;;;;0.10;0.10;;;12.40;99.90;;;;;;5010478;28;20489;-76
2023/10/22 09:09:38;;;;;;;0.10;0.10;;;12.40;99.90;;;;;;5015132;28;20046;-75
2023/10/22 09:12:08;;;;;;;0.10;0.10;;;12.40;99.90;;;;;;5013555;28;20046;-75
2023/10/22 09:14:34;;;;;;;0.10;0.10;;;12.40;99.90;;;;;;5012257;28;20060;-76
2023/10/22 09:17:20;;;;;;;0.20;0.20;;;12.40;99.90;;;;;;5011614;28;20524;-75
2023/10/22 09:19:49;;;;;;;0.10;0.10;;;12.50;99.90;;;;;;5012624;28;20053;-74
2023/10/22 09:22:23;;;;;;;0.10;0.10;;;12.50;99.90;;;;;;5011202;28;20124;-74
2023/10/22 09:24:55;;;;;;;0.10;0.10;;;12.50;99.90;;;;;;5010388;28;20057;-75
2023/10/22 09:27:25;;;;;;;0.10;0.10;;;12.50;99.90;;;;;;5000862;28;20049;-75
2023/10/22 09:29:52;;;;;;;0.20;0.20;;;12.50;99.90;;;;;;5011836;28;20128;-75
2023/10/22 09:32:19;;;;;;;0.10;0.10;;;12.60;99.90;;;;;;4994189;28;20053;-75
2023/10/22 09:34:45;;;;;;;0.10;0.10;;;12.60;99.90;;;;;;5003073;28;20065;-74
2023/10/22 09:37:10;;;;;;;0.15;0.15;;;12.60;99.90;;;;;;4998246;28;20072;-74
2023/10/22 09:39:42;;;;;;;0.20;0.20;;;12.60;99.90;;;;;;5005931;28;20064;-74
2023/10/22 09:42:09;;;;;;;0.10;0.10;;;12.70;99.90;;;;;;5013301;28;20045;-74
2023/10/22 09:44:37;;;;;;;0.15;0.15;;;12.80;99.90;;;;;;5012894;28;20046;-74
2023/10/22 09:47:06;;;;;;;0.13;0.13;;;12.80;99.90;;;;;;5013133;28;20053;-74
2023/10/22 09:49:35;;;;;;;0.40;0.30;;;12.80;99.90;;;;;;5013863;28;20045;-74
2023/10/22 09:52:03;;;;;;;0.10;0.10;;;12.90;99.90;;;;;;5014552;28;20045;-74
2023/10/22 09:54:41;;;;;;;0.10;0.10;;;12.90;99.90;;;;;;5013010;28;20053;-75
2023/10/22 09:57:18;;;;;;;0.10;0.10;;;13.00;99.90;;;;;;5029932;28;20045;-74
2023/10/22 09:59:45;;;;;;;0.20;0.20;;;13.10;99.90;;;;;;5032041;28;20056;-76
2023/10/22 10:02:15;;;;;;;0.10;0.10;;;13.10;99.90;;;;;;5013563;28;20041;-76
2023/10/22 10:04:44;;;;;;;0.10;0.10;;;13.20;99.90;;;;;;5002170;28;20073;-76
2023/10/22 10:07:10;;;;;;;0.13;0.13;;;13.20;99.90;;;;;;5011418;28;20054;-76
2023/10/22 10:09:37;;;;;;;0.10;0.10;;;13.20;99.90;;;;;;4997187;28;20116;-78
2023/10/22 10:12:06;;;;;;;0.10;0.10;;;13.30;99.90;;;;;;5009632;28;20501;-77
2023/10/22 10:14:41;;;;;;;0.20;0.20;;;13.30;99.90;;;;;;5006504;28;20053;-76
2023/10/22 10:17:07;;;;;;;0.10;0.10;;;13.30;99.90;;;;;;4994628;28;20044;-77
2023/10/22 10:19:33;;;;;;;0.10;0.10;;;13.40;99.90;;;;;;5010560;28;20044;-77
2023/10/22 10:21:59;;;;;;;0.10;0.10;;;13.40;99.90;;;;;;5008203;28;20050;-78
2023/10/22 10:24:29;;;;;;;0.20;0.20;;;13.30;99.90;;;;;;4997826;28;20125;-78
2023/10/22 10:26:55;;;;;;;0.10;0.10;;;13.40;99.90;;;;;;5009738;28;20157;-80
2023/10/22 10:29:23;;;;;;;0.10;0.10;;;13.50;99.90;;;;;;5010764;28;20054;-81
2023/10/22 10:31:53;;;;;;;0.10;0.10;;;13.60;99.90;;;;;;5030986;28;20049;-78
2023/10/22 10:34:36;;;;;;;0.20;0.20;;;13.60;99.90;;;;;;5029998;28;20511;-77
2023/10/22 10:37:31;;;;;;;0.17;0.17;;;13.70;99.90;;;;;;5013291;28;20064;-78
2023/10/22 10:39:57;;;;;;;0.20;0.20;;;13.70;99.90;;;;;;5003627;28;20058;-77
2023/10/22 10:42:29;;;;;;;0.15;0.15;;;13.70;99.90;;;;;;5005250;28;20373;-77
2023/10/22 10:44:57;;;;;;;0.20;0.20;;;13.80;99.90;;;;;;5005537;28;20604;-77
2023/10/22 10:47:27;;;;;;;0.15;0.15;;;13.80;99.90;;;;;;5023969;28;20384;-78
2023/10/22 10:50:04;;;;;;;0.20;0.20;;;13.80;99.90;;;;;;5007198;28;20057;-76
2023/10/22 10:52:38;;;;;;;0.20;0.20;;;13.80;99.90;;;;;;5006334;28;20068;-76
2023/10/22 10:55:09;;;;;;;0.15;0.15;;;13.80;99.90;;;;;;5008208;28;20056;-76
2023/10/22 10:57:42;;;;;;;0.20;0.20;;;13.70;99.90;;;;;;4997571;28;20083;-77
2023/10/22 11:00:10;;;;;;;0.20;0.20;;;13.70;99.90;;;;;;5007692;28;20045;-77
2023/10/22 11:02:42;;;;;;;0.10;0.10;;;13.60;99.90;;;;;;5027720;28;20109;-78
2023/10/22 11:05:12;;;;;;;0.10;0.10;;;13.60;99.90;;;;;;5021969;28;20041;-77
2023/10/22 11:07:38;;;;;;;0.10;0.10;;;13.60;99.90;;;;;;5008413;28;20072;-79
2023/10/22 11:10:11;;;;;;;0.10;0.10;;;13.60;99.90;;;;;;5027166;28;20042;-76
2023/10/22 11:12:38;;;;;;;0.10;0.10;;;13.60;99.90;;;;;;5004408;28;20123;-76
2023/10/22 11:15:04;;;;;;;0.10;0.10;;;13.60;99.90;;;;;;5007049;28;20488;-77
2023/10/22 11:17:30;;;;;;;0.10;0.10;;;13.60;99.90;;;;;;5006161;28;20045;-76
2023/10/22 11:19:56;;;;;;;0.20;0.20;;;13.60;99.90;;;;;;5026678;28;20132;-75
2023/10/22 11:22:23;;;;;;;0.20;0.20;;;13.60;99.90;;;;;;5008977;28;20068;-76
2023/10/22 11:24:49;;;;;;;0.10;0.10;;;13.60;99.90;;;;;;4991961;28;20050;-76
2023/10/22 11:27:15;;;;;;;0.20;0.20;;;13.60;99.90;;;;;;5022007;28;20045;-75
2023/10/22 11:29:48;;;;;;;0.10;0.10;;;13.60;99.90;;;;;;5012870;28;20062;-76
2023/10/22 11:32:16;;;;;;;0.10;0.10;;;13.60;99.90;;;;;;5011091;28;20050;-76
2023/10/22 11:35:02;;;;;;;0.10;0.10;;;13.70;99.90;;;;;;4999967;28;20062;-77
2023/10/22 11:37:30;;;;;;;0.10;0.10;;;13.70;99.90;;;;;;5021886;28;20481;-75
2023/10/22 11:39:57;;;;;;;0.20;0.20;;;13.80;99.90;;;;;;5029811;28;20103;-76
2023/10/22 11:42:30;;;;;;;0.20;0.20;;;13.90;99.90;;;;;;5004914;28;20042;-76
2023/10/22 11:44:56;;;;;;;0.13;0.13;;;13.90;99.90;;;;;;5011590;28;20056;-76
2023/10/22 11:47:33;;;;;;;0.10;0.10;;;14.10;99.90;;;;;;5008345;28;20057;-77
2023/10/22 11:49:58;;;;;;;0.10;0.10;;;14.20;99.90;;;;;;5012333;28;20397;-76
2023/10/22 11:52:37;;;;;;;0.20;0.20;;;14.20;99.90;;;;;;5008125;28;20100;-76
2023/10/22 11:55:07;;;;;;;0.20;0.20;;;14.30;99.90;;;;;;4993194;28;20077;-77
2023/10/22 11:57:37;;;;;;;0.15;0.15;;;14.50;99.90;;;;;;5021779;28;20528;-76
2023/10/22 12:00:04;;;;;;;0.10;0.10;;;14.40;99.90;;;;;;5029290;28;20401;-76
2023/10/22 12:02:30;;;;;;;0.13;0.13;;;14.30;99.90;;;;;;5010235;28;20046;-76
2023/10/22 12:04:56;;;;;;;0.10;0.10;;;14.20;99.90;;;;;;5022771;28;20052;-76
2023/10/22 12:07:22;;;;;;;0.20;0.20;;;14.20;99.90;;;;;;5005382;28;20137;-78
2023/10/22 12:09:47;;;;;;;0.20;0.20;;;14.10;99.90;;;;;;5028602;28;20120;-77
2023/10/22 12:12:13;;;;;;;0.10;0.10;;;14.10;99.90;;;;;;5010389;28;20045;-76
2023/10/22 12:14:39;;;;;;;0.20;0.20;;;14.10;99.90;;;;;;5028252;28;20053;-77
2023/10/22 12:17:05;;;;;;;0.10;0.10;;;14.10;99.90;;;;;;5007706;28;20524;-76
2023/10/22 12:19:31;;;;;;;0.20;0.20;;;14.00;99.90;;;;;;5006152;28;20129;-76
2023/10/22 12:21:57;;;;;;;0.20;0.20;;;14.00;99.90;;;;;;5012679;28;20133;-76
2023/10/22 12:24:22;;;;;;;0.10;0.10;;;14.10;99.90;;;;;;5033261;28;20572;-77
2023/10/22 12:26:48;;;;;;;0.20;0.20;;;14.20;99.90;;;;;;5026295;28;20492;-76
2023/10/22 12:29:14;;;;;;;0.20;0.20;;;14.30;99.90;;;;;;5014329;28;20378;-76
2023/10/22 12:31:41;;;;;;;0.20;0.20;;;;;;;;;;5013108;28;20045;-76
2023/10/22 12:34:07;;;;;;;0.10;0.10;;;15.70;99.90;;;;;;5015310;28;20490;-76
2023/10/22 12:36:33;;;;;;;0.20;0.20;;;17.20;99.90;;;;;;5029421;28;20041;-76
2023/10/22 12:38:59;;;;;;;0.20;0.20;;;19.50;99.90;;;;;;5033031;28;20041;-76
2023/10/22 12:41:24;;;;;;;0.20;0.20;;;21.80;99.90;;;;;;5030633;28;20516;-77
2023/10/22 12:43:50;;;;;;;0.20;0.20;;;23.80;99.90;;;;;;5031727;28;20499;-77
2023/10/22 12:46:17;;;;;;;0.20;0.20;;;25.50;99.90;;;;;;5009878;28;20057;-76